AAL5077 KTPA-KMEM
Flight info
| Callsign | AAL5077 |
|---|---|
| Flight time | N/A |
| Altitude | 34000 |
| Route | ENDED2 LACEN PATOY Q116 GOOGY WASER VANZE3 |
| Aircraft | A321/M-SDE3FGHIRWY/LB1 |
Departure
| Time | 2026-05-03 23:49 |
|---|---|
| Airport | Tampa International Airport (KTPA) |
Arrival
| Time | N/A |
|---|---|
| Airport | Memphis International Airport (KMEM) |
| Time | Latitude | Longitude | Altitude | Speed | Heading |
|---|---|---|---|---|---|
| 2026-05-03 23:18 | 27.97611 | -82.53159 | 43 ft | 0 kts | 269° |
| 2026-05-03 23:38 | 27.97611 | -82.53138 | 43 ft | 4 kts | 269° |
| 2026-05-03 23:38 | 27.97612 | -82.53107 | 43 ft | 4 kts | 268° |
| 2026-05-03 23:38 | 27.97613 | -82.53084 | 43 ft | 4 kts | 253° |
| 2026-05-03 23:39 | 27.97626 | -82.53066 | 41 ft | 4 kts | 185° |
| 2026-05-03 23:39 | 27.97649 | -82.53065 | 41 ft | 2 kts | 182° |
| 2026-05-03 23:39 | 27.97650 | -82.53065 | 41 ft | 0 kts | 182° |
| 2026-05-03 23:42 | 27.97643 | -82.53065 | 42 ft | 1 kts | 179° |
| 2026-05-03 23:42 | 27.97630 | -82.53066 | 42 ft | 2 kts | 181° |
| 2026-05-03 23:43 | 27.97610 | -82.53066 | 40 ft | 3 kts | 181° |
| 2026-05-03 23:43 | 27.97583 | -82.53067 | 43 ft | 4 kts | 181° |
| 2026-05-03 23:43 | 27.97554 | -82.53056 | 43 ft | 5 kts | 143° |
| 2026-05-03 23:43 | 27.97536 | -82.53020 | 42 ft | 6 kts | 116° |
| 2026-05-03 23:44 | 27.97499 | -82.52993 | 42 ft | 7 kts | 163° |
| 2026-05-03 23:44 | 27.97443 | -82.52990 | 41 ft | 9 kts | 181° |
| 2026-05-03 23:44 | 27.97379 | -82.52991 | 41 ft | 10 kts | 181° |
| 2026-05-03 23:44 | 27.97310 | -82.52992 | 41 ft | 10 kts | 182° |
| 2026-05-03 23:45 | 27.97236 | -82.52998 | 41 ft | 11 kts | 183° |
| 2026-05-03 23:45 | 27.97153 | -82.53000 | 39 ft | 13 kts | 181° |
| 2026-05-03 23:45 | 27.97047 | -82.53003 | 36 ft | 16 kts | 181° |
| 2026-05-03 23:45 | 27.96941 | -82.53006 | 40 ft | 14 kts | 182° |
| 2026-05-03 23:46 | 27.96843 | -82.53010 | 40 ft | 14 kts | 182° |
| 2026-05-03 23:46 | 27.96744 | -82.53014 | 41 ft | 15 kts | 181° |
| 2026-05-03 23:46 | 27.96642 | -82.53017 | 41 ft | 15 kts | 181° |
| 2026-05-03 23:46 | 27.96536 | -82.53020 | 41 ft | 16 kts | 181° |
| 2026-05-03 23:47 | 27.96450 | -82.52972 | 39 ft | 16 kts | 104° |
| 2026-05-03 23:47 | 27.96520 | -82.52899 | 37 ft | 16 kts | 4° |
| 2026-05-03 23:47 | 27.96588 | -82.52895 | 37 ft | 0 kts | 2° |
| 2026-05-03 23:48 | 27.96628 | -82.52894 | 37 ft | 16 kts | 2° |
| 2026-05-03 23:48 | 27.96814 | -82.52887 | 38 ft | 37 kts | 0° |
| 2026-05-03 23:48 | 27.97166 | -82.52875 | 38 ft | 77 kts | 2° |
| 2026-05-03 23:49 | 27.97951 | -82.52846 | 39 ft | 146 kts | 3° |
| 2026-05-03 23:49 | 27.99103 | -82.52827 | 385 ft | 174 kts | 2° |
| 2026-05-03 23:49 | 28.00311 | -82.52873 | 835 ft | 177 kts | 0° |
| 2026-05-03 23:49 | 28.01551 | -82.52922 | 1322 ft | 178 kts | 2° |
| 2026-05-03 23:50 | 28.02792 | -82.52911 | 1774 ft | 184 kts | 3° |
| 2026-05-03 23:50 | 28.03672 | -82.52893 | 1898 ft | 198 kts | 4° |
| 2026-05-03 23:50 | 28.05627 | -82.52846 | 2078 ft | 227 kts | 4° |
| 2026-05-03 23:50 | 28.07259 | -82.52808 | 2418 ft | 239 kts | 2° |
| 2026-05-03 23:51 | 28.08935 | -82.52773 | 2939 ft | 242 kts | 2° |
| 2026-05-03 23:51 | 28.10649 | -82.52736 | 3318 ft | 254 kts | 2° |
| 2026-05-03 23:51 | 28.12441 | -82.52698 | 3815 ft | 261 kts | 2° |
| 2026-05-03 23:51 | 28.14259 | -82.52661 | 4539 ft | 263 kts | 2° |
| 2026-05-03 23:52 | 28.16104 | -82.52623 | 5238 ft | 266 kts | 1° |
| 2026-05-03 23:52 | 28.17968 | -82.52623 | 5824 ft | 272 kts | 358° |
| 2026-05-03 23:52 | 28.19864 | -82.52728 | 5975 ft | 273 kts | 357° |
| 2026-05-03 23:52 | 28.21758 | -82.52850 | 6011 ft | 273 kts | 356° |
| 2026-05-03 23:53 | 28.23653 | -82.52978 | 6016 ft | 272 kts | 354° |
| 2026-05-03 23:53 | 28.25472 | -82.53552 | 6138 ft | 276 kts | 330° |
| 2026-05-03 23:53 | 28.26938 | -82.54937 | 6862 ft | 275 kts | 307° |
| 2026-05-03 23:53 | 28.28043 | -82.56702 | 7599 ft | 274 kts | 303° |
| 2026-05-03 23:54 | 28.29124 | -82.58496 | 8293 ft | 275 kts | 302° |
| 2026-05-03 23:54 | 28.30181 | -82.60270 | 9020 ft | 274 kts | 302° |
| 2026-05-03 23:54 | 28.31246 | -82.62065 | 9769 ft | 274 kts | 301° |
| 2026-05-03 23:54 | 28.32317 | -82.63869 | 10314 ft | 281 kts | 301° |
| 2026-05-03 23:55 | 28.33453 | -82.65785 | 10429 ft | 303 kts | 301° |
| 2026-05-03 23:55 | 28.34670 | -82.67840 | 10583 ft | 322 kts | 301° |
| 2026-05-03 23:55 | 28.35935 | -82.69975 | 11020 ft | 329 kts | 301° |
| 2026-05-03 23:55 | 28.37222 | -82.72137 | 11601 ft | 332 kts | 301° |
| 2026-05-03 23:56 | 28.38523 | -82.74318 | 12185 ft | 335 kts | 300° |
| 2026-05-03 23:56 | 28.40035 | -82.76365 | 12756 ft | 343 kts | 313° |
| 2026-05-03 23:56 | 28.42001 | -82.77964 | 13318 ft | 354 kts | 327° |
| 2026-05-03 23:56 | 28.44342 | -82.78971 | 13845 ft | 367 kts | 342° |
| 2026-05-03 23:57 | 28.46898 | -82.79427 | 14336 ft | 374 kts | 347° |
| 2026-05-03 23:57 | 28.49492 | -82.79839 | 14845 ft | 378 kts | 346° |
| 2026-05-03 23:57 | 28.52077 | -82.80257 | 15329 ft | 382 kts | 346° |
| 2026-05-03 23:57 | 28.54720 | -82.80687 | 15827 ft | 385 kts | 345° |
| 2026-05-03 23:58 | 28.57390 | -82.81123 | 16324 ft | 389 kts | 345° |
| 2026-05-03 23:58 | 28.60081 | -82.81578 | 16833 ft | 392 kts | 344° |
| 2026-05-03 23:58 | 28.62787 | -82.82062 | 17321 ft | 395 kts | 344° |
| 2026-05-03 23:58 | 28.65519 | -82.82564 | 17810 ft | 399 kts | 343° |
| 2026-05-03 23:59 | 28.68275 | -82.83077 | 18292 ft | 402 kts | 343° |
| 2026-05-03 23:59 | 28.71056 | -82.83593 | 18707 ft | 406 kts | 343° |
| 2026-05-03 23:59 | 28.73848 | -82.84105 | 19150 ft | 408 kts | 343° |
| 2026-05-03 23:59 | 28.76664 | -82.84613 | 19601 ft | 410 kts | 343° |
| 2026-05-04 00:00 | 28.79455 | -82.85117 | 20069 ft | 412 kts | 343° |
| 2026-05-04 00:00 | 28.82299 | -82.85628 | 20533 ft | 414 kts | 343° |
| 2026-05-04 00:00 | 28.85155 | -82.86140 | 21010 ft | 416 kts | 343° |
| 2026-05-04 00:00 | 28.88026 | -82.86656 | 21457 ft | 418 kts | 343° |
| 2026-05-04 00:01 | 28.90910 | -82.87180 | 21909 ft | 420 kts | 343° |
| 2026-05-04 00:01 | 28.93771 | -82.87703 | 22347 ft | 422 kts | 343° |
| 2026-05-04 00:01 | 28.96678 | -82.88234 | 22773 ft | 424 kts | 343° |
| 2026-05-04 00:01 | 28.99596 | -82.88765 | 23180 ft | 426 kts | 343° |
| 2026-05-04 00:02 | 29.02525 | -82.89297 | 23586 ft | 427 kts | 342° |
| 2026-05-04 00:02 | 29.05380 | -82.90101 | 23920 ft | 419 kts | 332° |
| 2026-05-04 00:02 | 29.08019 | -82.91430 | 24259 ft | 411 kts | 322° |
| 2026-05-04 00:02 | 29.10389 | -82.93205 | 24575 ft | 405 kts | 316° |
| 2026-05-04 00:03 | 29.12681 | -82.95094 | 24908 ft | 407 kts | 316° |
| 2026-05-04 00:03 | 29.14991 | -82.96985 | 25229 ft | 409 kts | 316° |
| 2026-05-04 00:03 | 29.17313 | -82.98878 | 25560 ft | 410 kts | 316° |
| 2026-05-04 00:03 | 29.19641 | -83.00769 | 25882 ft | 412 kts | 316° |
| 2026-05-04 00:04 | 29.21984 | -83.02675 | 26202 ft | 413 kts | 316° |
| 2026-05-04 00:04 | 29.24326 | -83.04590 | 26521 ft | 415 kts | 316° |
| 2026-05-04 00:04 | 29.26675 | -83.06514 | 26832 ft | 416 kts | 316° |
| 2026-05-04 00:04 | 29.29033 | -83.08451 | 27146 ft | 418 kts | 316° |
| 2026-05-04 00:05 | 29.31400 | -83.10396 | 27449 ft | 419 kts | 316° |
| 2026-05-04 00:05 | 29.33744 | -83.12322 | 27748 ft | 421 kts | 316° |
| 2026-05-04 00:05 | 29.36128 | -83.14277 | 28043 ft | 422 kts | 316° |
| 2026-05-04 00:05 | 29.38563 | -83.16271 | 28361 ft | 425 kts | 316° |
| 2026-05-04 00:06 | 29.40937 | -83.18220 | 28644 ft | 426 kts | 315° |
| 2026-05-04 00:06 | 29.43350 | -83.20205 | 28923 ft | 428 kts | 315° |
| 2026-05-04 00:06 | 29.45774 | -83.22203 | 29198 ft | 429 kts | 315° |
| 2026-05-04 00:06 | 29.48206 | -83.24203 | 29473 ft | 431 kts | 315° |
| 2026-05-04 00:07 | 29.50644 | -83.26211 | 29750 ft | 432 kts | 315° |
| 2026-05-04 00:07 | 29.53091 | -83.28229 | 30030 ft | 434 kts | 315° |
| 2026-05-04 00:07 | 29.55547 | -83.30253 | 30282 ft | 436 kts | 315° |
| 2026-05-04 00:07 | 29.58009 | -83.32283 | 30591 ft | 435 kts | 315° |
| 2026-05-04 00:08 | 29.60464 | -83.34306 | 30936 ft | 433 kts | 315° |
| 2026-05-04 00:08 | 29.62910 | -83.36322 | 31278 ft | 431 kts | 315° |
| 2026-05-04 00:08 | 29.65343 | -83.38332 | 31610 ft | 430 kts | 315° |
| 2026-05-04 00:08 | 29.67765 | -83.40337 | 31973 ft | 429 kts | 315° |
| 2026-05-04 00:09 | 29.70185 | -83.42343 | 32273 ft | 428 kts | 314° |
| 2026-05-04 00:09 | 29.72593 | -83.44341 | 32589 ft | 427 kts | 314° |
| 2026-05-04 00:09 | 29.75004 | -83.46341 | 32910 ft | 426 kts | 314° |
| 2026-05-04 00:09 | 29.77407 | -83.48335 | 33228 ft | 425 kts | 314° |
| 2026-05-04 00:10 | 29.79801 | -83.50315 | 33547 ft | 424 kts | 314° |
| 2026-05-04 00:10 | 29.81467 | -83.51694 | 33765 ft | 423 kts | 314° |
| 2026-05-04 00:10 | 29.83843 | -83.53664 | 34065 ft | 422 kts | 314° |
| 2026-05-04 00:10 | 29.86245 | -83.55661 | 34113 ft | 420 kts | 314° |
| 2026-05-04 00:11 | 29.90906 | -83.59539 | 34111 ft | 418 kts | 314° |
| 2026-05-04 00:11 | 29.95624 | -83.63469 | 34109 ft | 418 kts | 314° |
| 2026-05-04 00:12 | 30.00380 | -83.67434 | 34110 ft | 420 kts | 314° |
| 2026-05-04 00:12 | 30.05130 | -83.71389 | 34110 ft | 420 kts | 314° |
| 2026-05-04 00:13 | 30.09872 | -83.75353 | 34117 ft | 421 kts | 314° |
| 2026-05-04 00:13 | 30.14613 | -83.79320 | 34123 ft | 421 kts | 314° |
| 2026-05-04 00:14 | 30.19358 | -83.83291 | 34125 ft | 421 kts | 314° |
| 2026-05-04 00:14 | 30.24098 | -83.87268 | 34127 ft | 421 kts | 314° |
| 2026-05-04 00:15 | 30.28841 | -83.91255 | 34174 ft | 421 kts | 314° |
| 2026-05-04 00:15 | 30.33585 | -83.95246 | 34121 ft | 421 kts | 314° |
| 2026-05-04 00:16 | 30.38287 | -83.99202 | 34124 ft | 421 kts | 314° |
| 2026-05-04 00:16 | 30.43059 | -84.03226 | 34122 ft | 421 kts | 314° |
| 2026-05-04 00:17 | 30.47798 | -84.07231 | 34118 ft | 422 kts | 314° |
| 2026-05-04 00:17 | 30.52543 | -84.11241 | 34123 ft | 422 kts | 314° |
| 2026-05-04 00:18 | 30.57258 | -84.15232 | 34123 ft | 422 kts | 314° |
| 2026-05-04 00:18 | 30.62003 | -84.19245 | 34127 ft | 422 kts | 314° |
| 2026-05-04 00:19 | 30.66738 | -84.23257 | 34126 ft | 421 kts | 314° |
| 2026-05-04 00:19 | 30.71464 | -84.27279 | 34126 ft | 421 kts | 314° |
| 2026-05-04 00:20 | 30.76189 | -84.31306 | 34139 ft | 421 kts | 314° |
| 2026-05-04 00:20 | 30.80917 | -84.35332 | 34133 ft | 421 kts | 314° |
| 2026-05-04 00:21 | 30.85636 | -84.39355 | 34149 ft | 421 kts | 315° |
| 2026-05-04 00:21 | 30.90376 | -84.43397 | 34125 ft | 422 kts | 315° |
| 2026-05-04 00:22 | 30.95122 | -84.47448 | 34126 ft | 423 kts | 315° |
| 2026-05-04 00:22 | 30.99834 | -84.51475 | 34128 ft | 423 kts | 315° |
| 2026-05-04 00:23 | 31.04579 | -84.55542 | 34128 ft | 424 kts | 315° |
| 2026-05-04 00:23 | 31.09328 | -84.59619 | 34127 ft | 424 kts | 315° |
| 2026-05-04 00:24 | 31.14079 | -84.63694 | 34167 ft | 424 kts | 315° |
| 2026-05-04 00:24 | 31.18840 | -84.67790 | 34165 ft | 425 kts | 315° |
| 2026-05-04 00:25 | 31.23598 | -84.71900 | 34153 ft | 426 kts | 316° |
| 2026-05-04 00:25 | 31.28367 | -84.76019 | 34147 ft | 426 kts | 316° |
| 2026-05-04 00:26 | 31.33136 | -84.80124 | 34151 ft | 426 kts | 316° |
| 2026-05-04 00:26 | 31.37907 | -84.84250 | 34147 ft | 426 kts | 316° |
| 2026-05-04 00:27 | 31.42669 | -84.88383 | 34171 ft | 426 kts | 316° |
| 2026-05-04 00:27 | 31.47445 | -84.92519 | 34163 ft | 427 kts | 316° |
| 2026-05-04 00:28 | 31.52226 | -84.96670 | 34154 ft | 427 kts | 316° |
| 2026-05-04 00:28 | 31.56972 | -85.00798 | 34150 ft | 428 kts | 316° |
| 2026-05-04 00:29 | 31.61751 | -85.04966 | 34162 ft | 428 kts | 317° |
| 2026-05-04 00:29 | 31.66513 | -85.09138 | 34156 ft | 427 kts | 317° |
| 2026-05-04 00:30 | 31.71263 | -85.13311 | 34186 ft | 426 kts | 317° |
| 2026-05-04 00:30 | 31.76022 | -85.17495 | 34132 ft | 426 kts | 317° |
| 2026-05-04 00:31 | 31.80772 | -85.21670 | 34126 ft | 427 kts | 317° |
| 2026-05-04 00:31 | 31.85527 | -85.25848 | 34128 ft | 427 kts | 317° |
| 2026-05-04 00:32 | 31.90278 | -85.30039 | 34133 ft | 427 kts | 317° |
| 2026-05-04 00:32 | 31.95030 | -85.34242 | 34134 ft | 427 kts | 317° |
| 2026-05-04 00:33 | 32.02126 | -85.40511 | 34152 ft | 427 kts | 318° |
| 2026-05-04 00:34 | 32.06879 | -85.44712 | 34148 ft | 426 kts | 319° |
| 2026-05-04 00:34 | 32.11609 | -85.48910 | 34146 ft | 425 kts | 319° |
| 2026-05-04 00:35 | 32.16334 | -85.53110 | 34142 ft | 424 kts | 319° |
| 2026-05-04 00:35 | 32.21035 | -85.57291 | 34138 ft | 423 kts | 319° |
| 2026-05-04 00:36 | 32.25737 | -85.61477 | 34135 ft | 422 kts | 319° |
| 2026-05-04 00:36 | 32.30398 | -85.65632 | 34147 ft | 422 kts | 320° |
| 2026-05-04 00:37 | 32.35079 | -85.69813 | 34141 ft | 421 kts | 321° |
| 2026-05-04 00:37 | 32.39756 | -85.73989 | 34139 ft | 421 kts | 320° |
| 2026-05-04 00:38 | 32.44427 | -85.78178 | 34126 ft | 421 kts | 320° |
| 2026-05-04 00:38 | 32.49092 | -85.82367 | 34131 ft | 421 kts | 320° |
| 2026-05-04 00:39 | 32.53761 | -85.86559 | 34127 ft | 420 kts | 321° |
| 2026-05-04 00:39 | 32.58429 | -85.90750 | 34137 ft | 420 kts | 321° |
| 2026-05-04 00:40 | 32.63087 | -85.94943 | 34133 ft | 420 kts | 321° |
| 2026-05-04 00:40 | 32.67712 | -85.99109 | 34134 ft | 420 kts | 321° |
| 2026-05-04 00:41 | 32.72363 | -86.03300 | 34139 ft | 420 kts | 321° |
| 2026-05-04 00:41 | 32.77014 | -86.07496 | 34145 ft | 420 kts | 321° |
| 2026-05-04 00:42 | 32.81668 | -86.11701 | 34148 ft | 420 kts | 321° |
| 2026-05-04 00:42 | 32.86309 | -86.15915 | 34159 ft | 419 kts | 321° |
| 2026-05-04 00:43 | 32.90910 | -86.20088 | 34157 ft | 417 kts | 322° |
| 2026-05-04 00:43 | 32.95507 | -86.24265 | 34158 ft | 414 kts | 322° |
| 2026-05-04 00:44 | 33.00075 | -86.28428 | 34148 ft | 413 kts | 322° |
| 2026-05-04 00:44 | 33.04638 | -86.32576 | 34146 ft | 412 kts | 322° |
| 2026-05-04 00:45 | 33.09185 | -86.36716 | 34174 ft | 411 kts | 322° |
| 2026-05-04 00:45 | 33.13726 | -86.40856 | 34178 ft | 410 kts | 321° |
| 2026-05-04 00:46 | 33.18248 | -86.45000 | 34168 ft | 409 kts | 321° |
| 2026-05-04 00:46 | 33.22729 | -86.49108 | 34171 ft | 408 kts | 321° |
| 2026-05-04 00:47 | 33.27232 | -86.53229 | 34160 ft | 408 kts | 321° |
| 2026-05-04 00:47 | 33.31720 | -86.57364 | 34137 ft | 407 kts | 321° |
| 2026-05-04 00:48 | 33.36198 | -86.61503 | 34150 ft | 405 kts | 321° |
| 2026-05-04 00:48 | 33.40667 | -86.65613 | 34168 ft | 404 kts | 321° |
| 2026-05-04 00:49 | 33.45126 | -86.69708 | 34175 ft | 404 kts | 321° |
| 2026-05-04 00:49 | 33.49582 | -86.73796 | 34174 ft | 403 kts | 321° |
| 2026-05-04 00:50 | 33.54029 | -86.77910 | 34174 ft | 403 kts | 321° |
| 2026-05-04 00:50 | 33.58466 | -86.82025 | 34175 ft | 403 kts | 321° |
| 2026-05-04 00:51 | 33.62875 | -86.86129 | 34172 ft | 403 kts | 321° |
| 2026-05-04 00:51 | 33.67029 | -86.90611 | 34172 ft | 401 kts | 308° |
| 2026-05-04 00:52 | 33.69903 | -86.96341 | 34141 ft | 401 kts | 299° |
| 2026-05-04 00:52 | 33.72113 | -87.01234 | 34138 ft | 401 kts | 300° |
| 2026-05-04 00:53 | 33.74794 | -87.07098 | 34126 ft | 400 kts | 300° |
| 2026-05-04 00:53 | 33.77460 | -87.12965 | 34107 ft | 399 kts | 300° |
| 2026-05-04 00:54 | 33.80121 | -87.18827 | 34142 ft | 399 kts | 300° |
| 2026-05-04 00:54 | 33.82768 | -87.24699 | 34153 ft | 399 kts | 300° |
| 2026-05-04 00:55 | 33.85421 | -87.30572 | 34151 ft | 399 kts | 300° |
| 2026-05-04 00:55 | 33.88056 | -87.36417 | 34143 ft | 399 kts | 300° |
| 2026-05-04 00:56 | 33.90684 | -87.42294 | 34150 ft | 399 kts | 300° |
| 2026-05-04 00:56 | 33.93325 | -87.48162 | 34161 ft | 398 kts | 300° |
| 2026-05-04 00:57 | 33.95960 | -87.54027 | 34150 ft | 398 kts | 299° |
| 2026-05-04 00:57 | 33.98580 | -87.59886 | 34137 ft | 397 kts | 299° |
| 2026-05-04 00:58 | 34.01201 | -87.65744 | 34125 ft | 397 kts | 299° |
| 2026-05-04 00:58 | 34.03870 | -87.71557 | 34095 ft | 396 kts | 302° |
| 2026-05-04 00:59 | 34.06822 | -87.77100 | 34106 ft | 395 kts | 304° |
| 2026-05-04 00:59 | 34.09881 | -87.82597 | 34113 ft | 394 kts | 304° |
| 2026-05-04 01:00 | 34.12892 | -87.88113 | 34085 ft | 394 kts | 303° |
| 2026-05-04 01:00 | 34.15861 | -87.93684 | 34117 ft | 394 kts | 303° |
| 2026-05-04 01:01 | 34.18809 | -87.99258 | 34116 ft | 393 kts | 303° |
| 2026-05-04 01:01 | 34.21751 | -88.04830 | 34132 ft | 393 kts | 302° |
| 2026-05-04 01:02 | 34.24593 | -88.10477 | 34114 ft | 393 kts | 301° |
| 2026-05-04 01:02 | 34.27382 | -88.16162 | 34109 ft | 393 kts | 301° |
| 2026-05-04 01:03 | 34.30166 | -88.21815 | 34087 ft | 394 kts | 302° |
| 2026-05-04 01:03 | 34.32996 | -88.27525 | 34088 ft | 396 kts | 302° |
| 2026-05-04 01:03 | 34.34413 | -88.30382 | 33725 ft | 396 kts | 302° |
| 2026-05-04 01:04 | 34.35824 | -88.33225 | 33413 ft | 388 kts | 302° |
| 2026-05-04 01:04 | 34.37203 | -88.36001 | 33044 ft | 382 kts | 302° |
| 2026-05-04 01:04 | 34.38565 | -88.38741 | 32586 ft | 378 kts | 302° |
| 2026-05-04 01:04 | 34.39911 | -88.41460 | 32092 ft | 375 kts | 302° |
| 2026-05-04 01:05 | 34.41244 | -88.44165 | 31603 ft | 373 kts | 301° |
| 2026-05-04 01:05 | 34.42573 | -88.46863 | 31115 ft | 370 kts | 301° |
| 2026-05-04 01:05 | 34.43889 | -88.49533 | 30626 ft | 368 kts | 302° |
| 2026-05-04 01:05 | 34.45208 | -88.52207 | 29655 ft | 376 kts | 302° |
| 2026-05-04 01:06 | 34.46570 | -88.54972 | 28061 ft | 397 kts | 301° |
| 2026-05-04 01:06 | 34.48021 | -88.57926 | 26547 ft | 417 kts | 301° |
| 2026-05-04 01:06 | 34.49507 | -88.60952 | 25943 ft | 413 kts | 301° |
| 2026-05-04 01:06 | 34.50947 | -88.63887 | 25806 ft | 398 kts | 301° |
| 2026-05-04 01:07 | 34.52341 | -88.66729 | 25683 ft | 384 kts | 301° |
| 2026-05-04 01:07 | 34.53679 | -88.69461 | 25549 ft | 371 kts | 301° |
| 2026-05-04 01:07 | 34.54974 | -88.72107 | 25432 ft | 359 kts | 301° |
| 2026-05-04 01:07 | 34.56264 | -88.74742 | 24438 ft | 371 kts | 301° |
| 2026-05-04 01:08 | 34.57605 | -88.77486 | 23768 ft | 376 kts | 301° |
| 2026-05-04 01:08 | 34.58916 | -88.80175 | 23624 ft | 364 kts | 301° |
| 2026-05-04 01:08 | 34.60186 | -88.82781 | 23494 ft | 353 kts | 301° |
| 2026-05-04 01:08 | 34.61408 | -88.85289 | 22911 ft | 339 kts | 301° |
| 2026-05-04 01:09 | 34.62598 | -88.87723 | 22198 ft | 328 kts | 301° |
| 2026-05-04 01:09 | 34.63592 | -88.90092 | 21672 ft | 315 kts | 293° |
| 2026-05-04 01:09 | 34.64249 | -88.92629 | 21313 ft | 311 kts | 287° |
| 2026-05-04 01:09 | 34.64785 | -88.95151 | 21014 ft | 306 kts | 287° |
| 2026-05-04 01:10 | 34.65330 | -88.97640 | 20635 ft | 304 kts | 287° |
| 2026-05-04 01:10 | 34.65877 | -89.00119 | 20242 ft | 302 kts | 287° |
| 2026-05-04 01:10 | 34.66419 | -89.02581 | 19854 ft | 301 kts | 287° |
| 2026-05-04 01:10 | 34.66957 | -89.05035 | 19466 ft | 300 kts | 288° |
| 2026-05-04 01:11 | 34.67493 | -89.07484 | 19077 ft | 299 kts | 288° |
| 2026-05-04 01:11 | 34.68031 | -89.09922 | 18689 ft | 299 kts | 288° |
| 2026-05-04 01:11 | 34.68589 | -89.12354 | 18288 ft | 298 kts | 288° |
| 2026-05-04 01:11 | 34.69159 | -89.14787 | 17825 ft | 299 kts | 288° |
| 2026-05-04 01:12 | 34.69728 | -89.17210 | 17436 ft | 297 kts | 288° |
| 2026-05-04 01:12 | 34.70283 | -89.19579 | 17058 ft | 295 kts | 288° |
| 2026-05-04 01:12 | 34.70839 | -89.21971 | 16687 ft | 293 kts | 288° |
| 2026-05-04 01:12 | 34.71390 | -89.24350 | 16303 ft | 291 kts | 288° |
| 2026-05-04 01:13 | 34.71938 | -89.26714 | 15944 ft | 290 kts | 288° |
| 2026-05-04 01:13 | 34.72476 | -89.29086 | 15731 ft | 299 kts | 288° |
| 2026-05-04 01:13 | 34.73029 | -89.31567 | 15456 ft | 307 kts | 287° |
| 2026-05-04 01:13 | 34.73585 | -89.34077 | 15209 ft | 308 kts | 287° |
| 2026-05-04 01:14 | 34.74138 | -89.36584 | 14950 ft | 307 kts | 287° |
| 2026-05-04 01:14 | 34.74691 | -89.39087 | 14690 ft | 306 kts | 287° |
| 2026-05-04 01:14 | 34.75244 | -89.41582 | 14424 ft | 305 kts | 287° |
| 2026-05-04 01:14 | 34.75794 | -89.44074 | 14177 ft | 305 kts | 287° |
| 2026-05-04 01:15 | 34.76344 | -89.46563 | 13919 ft | 304 kts | 287° |
| 2026-05-04 01:15 | 34.76939 | -89.49030 | 13641 ft | 303 kts | 292° |
| 2026-05-04 01:15 | 34.77859 | -89.51313 | 13382 ft | 300 kts | 303° |
| 2026-05-04 01:15 | 34.78962 | -89.53467 | 13127 ft | 300 kts | 303° |
| 2026-05-04 01:16 | 34.80061 | -89.55625 | 12881 ft | 300 kts | 303° |
| 2026-05-04 01:16 | 34.81156 | -89.57785 | 12621 ft | 299 kts | 302° |
| 2026-05-04 01:16 | 34.82242 | -89.59935 | 12316 ft | 293 kts | 302° |
| 2026-05-04 01:16 | 34.83288 | -89.62015 | 11914 ft | 284 kts | 302° |
| 2026-05-04 01:17 | 34.84327 | -89.64084 | 11672 ft | 289 kts | 302° |
| 2026-05-04 01:17 | 34.85376 | -89.66166 | 11419 ft | 287 kts | 302° |
| 2026-05-04 01:17 | 34.86418 | -89.68237 | 11171 ft | 286 kts | 302° |
| 2026-05-04 01:17 | 34.87459 | -89.70305 | 10929 ft | 286 kts | 302° |
| 2026-05-04 01:18 | 34.88495 | -89.72363 | 10690 ft | 285 kts | 302° |
| 2026-05-04 01:18 | 34.89534 | -89.74423 | 10450 ft | 285 kts | 303° |
| 2026-05-04 01:18 | 34.90566 | -89.76467 | 10211 ft | 281 kts | 303° |
| 2026-05-04 01:18 | 34.91567 | -89.78453 | 9977 ft | 276 kts | 303° |
| 2026-05-04 01:19 | 34.92554 | -89.80418 | 9772 ft | 269 kts | 302° |
| 2026-05-04 01:19 | 34.93523 | -89.82349 | 9456 ft | 266 kts | 302° |
| 2026-05-04 01:19 | 34.94587 | -89.84173 | 9127 ft | 263 kts | 316° |
| 2026-05-04 01:19 | 34.96079 | -89.85417 | 8801 ft | 260 kts | 337° |
| 2026-05-04 01:20 | 34.97835 | -89.85899 | 8478 ft | 260 kts | 357° |
| 2026-05-04 01:20 | 34.99636 | -89.85940 | 8149 ft | 259 kts | 357° |
| 2026-05-04 01:20 | 35.01432 | -89.85978 | 7846 ft | 257 kts | 357° |
| 2026-05-04 01:20 | 35.03222 | -89.86012 | 7542 ft | 256 kts | 357° |
| 2026-05-04 01:21 | 35.05000 | -89.86045 | 7235 ft | 255 kts | 356° |
| 2026-05-04 01:21 | 35.06775 | -89.86076 | 6936 ft | 254 kts | 356° |
| 2026-05-04 01:21 | 35.08514 | -89.86110 | 6632 ft | 252 kts | 356° |
| 2026-05-04 01:21 | 35.10267 | -89.86149 | 6324 ft | 251 kts | 356° |
| 2026-05-04 01:22 | 35.12013 | -89.86189 | 6014 ft | 249 kts | 355° |
| 2026-05-04 01:22 | 35.13739 | -89.86230 | 5717 ft | 247 kts | 355° |
| 2026-05-04 01:22 | 35.15451 | -89.86266 | 5416 ft | 245 kts | 355° |
| 2026-05-04 01:22 | 35.17152 | -89.86300 | 5132 ft | 243 kts | 355° |
| 2026-05-04 01:23 | 35.18834 | -89.86333 | 4846 ft | 240 kts | 354° |
| 2026-05-04 01:23 | 35.20498 | -89.86369 | 4553 ft | 238 kts | 354° |
| 2026-05-04 01:23 | 35.22154 | -89.86404 | 4139 ft | 242 kts | 355° |
| 2026-05-04 01:23 | 35.23888 | -89.86430 | 3480 ft | 256 kts | 355° |
| 2026-05-04 01:24 | 35.25693 | -89.86463 | 3087 ft | 259 kts | 355° |
| 2026-05-04 01:24 | 35.27455 | -89.86505 | 2999 ft | 248 kts | 355° |
| 2026-05-04 01:24 | 35.29178 | -89.86559 | 3007 ft | 247 kts | 355° |
| 2026-05-04 01:24 | 35.30900 | -89.86631 | 3008 ft | 247 kts | 352° |
| 2026-05-04 01:25 | 35.32484 | -89.87208 | 3033 ft | 229 kts | 322° |
| 2026-05-04 01:25 | 35.33457 | -89.88561 | 3022 ft | 202 kts | 288° |
| 2026-05-04 01:25 | 35.33556 | -89.90094 | 3011 ft | 168 kts | 250° |
| 2026-05-04 01:25 | 35.32862 | -89.91091 | 3020 ft | 153 kts | 209° |
| 2026-05-04 01:26 | 35.31873 | -89.91520 | 3009 ft | 149 kts | 199° |
| 2026-05-04 01:26 | 35.30887 | -89.91845 | 3006 ft | 145 kts | 199° |
| 2026-05-04 01:26 | 35.29909 | -89.92143 | 3006 ft | 145 kts | 198° |
| 2026-05-04 01:26 | 35.28932 | -89.92440 | 3007 ft | 144 kts | 198° |
| 2026-05-04 01:27 | 35.27963 | -89.92740 | 3008 ft | 144 kts | 198° |
| 2026-05-04 01:27 | 35.26995 | -89.93038 | 3008 ft | 144 kts | 198° |
| 2026-05-04 01:27 | 35.26026 | -89.93334 | 3008 ft | 144 kts | 198° |
| 2026-05-04 01:27 | 35.25057 | -89.93638 | 3010 ft | 143 kts | 199° |
| 2026-05-04 01:28 | 35.24090 | -89.93957 | 2999 ft | 144 kts | 199° |
| 2026-05-04 01:28 | 35.23123 | -89.94278 | 3003 ft | 144 kts | 199° |
| 2026-05-04 01:28 | 35.22159 | -89.94598 | 3004 ft | 143 kts | 199° |
| 2026-05-04 01:28 | 35.21193 | -89.94919 | 3007 ft | 144 kts | 199° |
| 2026-05-04 01:29 | 35.20225 | -89.95239 | 3007 ft | 144 kts | 199° |
| 2026-05-04 01:29 | 35.19273 | -89.95554 | 2958 ft | 145 kts | 199° |
| 2026-05-04 01:29 | 35.18305 | -89.95874 | 2827 ft | 143 kts | 198° |
| 2026-05-04 01:29 | 35.17343 | -89.96192 | 2703 ft | 143 kts | 198° |
| 2026-05-04 01:30 | 35.16382 | -89.96512 | 2542 ft | 143 kts | 198° |
| 2026-05-04 01:30 | 35.15424 | -89.96830 | 2375 ft | 142 kts | 198° |
| 2026-05-04 01:30 | 35.14466 | -89.97148 | 2194 ft | 142 kts | 198° |
| 2026-05-04 01:30 | 35.13504 | -89.97426 | 2069 ft | 143 kts | 187° |
| 2026-05-04 01:31 | 35.12506 | -89.97430 | 1953 ft | 143 kts | 184° |
| 2026-05-04 01:31 | 35.11511 | -89.97422 | 1683 ft | 142 kts | 182° |
| 2026-05-04 01:31 | 35.10526 | -89.97408 | 1456 ft | 141 kts | 181° |
| 2026-05-04 01:31 | 35.09556 | -89.97391 | 1262 ft | 141 kts | 181° |
| 2026-05-04 01:32 | 35.08571 | -89.97371 | 1060 ft | 142 kts | 181° |
| 2026-05-04 01:32 | 35.07581 | -89.97351 | 858 ft | 143 kts | 179° |
| 2026-05-04 01:32 | 35.06587 | -89.97331 | 677 ft | 143 kts | 180° |
| 2026-05-04 01:32 | 35.05593 | -89.97310 | 481 ft | 142 kts | 180° |
| 2026-05-04 01:33 | 35.04607 | -89.97289 | 325 ft | 139 kts | 179° |
| 2026-05-04 01:33 | 35.03907 | -89.97276 | 311 ft | 54 kts | 178° |
| 2026-05-04 01:33 | 35.03387 | -89.97272 | 307 ft | 84 kts | 181° |
| 2026-05-04 01:33 | 35.02864 | -89.97356 | 299 ft | 79 kts | 191° |